Time;durP1;ratioP1;P1;durP2;ratioP2;P2;SDS_P1;SDS_P2;PMS_P1;PMS_P2;Temp;Humidity;BMP_temperature;BMP_pressure;BME280_temperature;BME280_humidity;BME280_pressure;Samples;Min_cycle;Max_cycle;Signal;HPM_P1;HPM_P2
2021/10/27 00:00:08;;;;;;;;;;;7.70;52.40;;;;;;4376228;32;20052;-45
2021/10/27 00:02:35;;;;;;;;;;;7.70;52.50;;;;;;4375753;32;20081;-44
2021/10/27 00:05:02;;;;;;;;;;;7.70;52.60;;;;;;4375892;32;19982;-44
2021/10/27 00:07:29;;;;;;;;;;;7.70;52.50;;;;;;4376175;32;20049;-44
2021/10/27 00:09:55;;;;;;;;;;;7.70;52.60;;;;;;4375938;32;19997;-43
2021/10/27 00:12:21;;;;;;;;;;;7.70;52.70;;;;;;4375920;32;19969;-43
2021/10/27 00:14:47;;;;;;;;;;;7.70;52.90;;;;;;4375960;32;20056;-43
2021/10/27 00:17:14;;;;;;;;;;;7.70;52.90;;;;;;4375870;32;19982;-44
2021/10/27 00:19:40;;;;;;;;;;;7.70;53.00;;;;;;4361755;32;19974;-43
2021/10/27 00:22:06;;;;;;;;;;;7.60;53.00;;;;;;4375722;32;20478;-44
2021/10/27 00:24:32;;;;;;;;;;;7.60;53.20;;;;;;4375675;32;20381;-45
2021/10/27 00:26:59;;;;;;;;;;;7.60;53.50;;;;;;4375637;32;19967;-42
2021/10/27 00:29:25;;;;;;;;;;;7.60;53.70;;;;;;4375476;32;19967;-43
2021/10/27 00:31:54;;;;;;;;;;;7.60;53.80;;;;;;4375720;32;19972;-42
2021/10/27 00:34:20;;;;;;;;;;;7.60;53.30;;;;;;4375017;32;19985;-44
2021/10/27 00:36:46;;;;;;;;;;;7.60;52.70;;;;;;4375243;32;19962;-42
2021/10/27 00:39:13;;;;;;;;;;;7.60;52.30;;;;;;4375596;32;20412;-46
2021/10/27 00:41:43;;;;;;;;;;;7.70;51.80;;;;;;4375244;32;19993;-44
2021/10/27 00:44:19;;;;;;;;;;;7.70;51.60;;;;;;4375743;32;19974;-46
2021/10/27 00:46:45;;;;;;;;;;;7.70;51.30;;;;;;4363101;32;19972;-46
2021/10/27 00:49:12;;;;;;;;;;;7.70;51.00;;;;;;4346614;32;20039;-45
2021/10/27 00:51:38;;;;;;;;;;;7.80;51.00;;;;;;4360382;32;19982;-46
2021/10/27 00:54:04;;;;;;;;;;;7.80;50.80;;;;;;4360025;32;20068;-46
2021/10/27 00:56:30;;;;;;;;;;;7.90;50.70;;;;;;4359947;32;20126;-45
2021/10/27 00:58:57;;;;;;;;;;;7.90;50.40;;;;;;4360293;32;20501;-44
2021/10/27 01:01:23;;;;;;;;;;;7.90;49.90;;;;;;4360152;32;20418;-45
2021/10/27 01:03:49;;;;;;;;;;;7.90;49.90;;;;;;4360564;32;20373;-46
2021/10/27 01:06:15;;;;;;;;;;;8.00;50.70;;;;;;4360449;32;19958;-45
2021/10/27 01:08:41;;;;;;;;;;;8.00;50.10;;;;;;4359790;32;20410;-45
2021/10/27 01:11:07;;;;;;;;;;;8.00;49.80;;;;;;4360092;32;20080;-46
2021/10/27 01:13:34;;;;;;;;;;;8.00;49.90;;;;;;4360369;32;19985;-45
2021/10/27 01:16:00;;;;;;;;;;;8.00;49.70;;;;;;4360042;32;20071;-44
2021/10/27 01:18:26;;;;;;;;;;;8.00;49.70;;;;;;4359905;32;19963;-42
2021/10/27 01:20:52;;;;;;;;;;;7.90;49.70;;;;;;4346232;32;20110;-43
2021/10/27 01:23:19;;;;;;;;;;;7.90;49.90;;;;;;4359686;32;19974;-44
2021/10/27 01:25:46;;;;;;;;;;;7.90;50.10;;;;;;4360073;32;19963;-42
2021/10/27 01:28:12;;;;;;;;;;;7.90;50.10;;;;;;4359516;32;19967;-42
2021/10/27 01:30:38;;;;;;;;;;;7.90;50.20;;;;;;4359604;32;19984;-45
2021/10/27 01:33:04;;;;;;;;;;;7.90;50.20;;;;;;4359945;32;19965;-44
2021/10/27 01:35:31;;;;;;;;;;;7.90;50.20;;;;;;4359348;32;20520;-46
2021/10/27 01:37:57;;;;;;;;;;;7.90;50.30;;;;;;4359577;32;19974;-44
2021/10/27 01:40:23;;;;;;;;;;;7.90;50.40;;;;;;4345755;32;19954;-44
2021/10/27 01:42:53;;;;;;;;;;;7.90;50.10;;;;;;4359574;32;20390;-42
2021/10/27 01:45:19;;;;;;;;;;;7.90;50.00;;;;;;4362594;32;19962;-41
2021/10/27 01:47:45;;;;;;;;;;;7.90;49.80;;;;;;4375274;32;19968;-45
2021/10/27 01:50:12;;;;;;;;;;;7.80;50.00;;;;;;4374045;32;20467;-48
2021/10/27 01:52:38;;;;;;;;;;;7.80;50.10;;;;;;4344403;32;20070;-45
2021/10/27 01:55:05;;;;;;;;;;;7.80;49.90;;;;;;4356554;32;19989;-43
2021/10/27 01:57:32;;;;;;;;;;;7.80;49.90;;;;;;4356704;32;20052;-45
2021/10/27 01:59:58;;;;;;;;;;;7.80;49.70;;;;;;4356754;32;20626;-44
2021/10/27 02:02:24;;;;;;;;;;;7.80;49.70;;;;;;4356802;32;19994;-43
2021/10/27 02:04:50;;;;;;;;;;;7.80;49.80;;;;;;4344800;32;19978;-40
2021/10/27 02:07:18;;;;;;;;;;;7.80;49.90;;;;;;4356785;32;19971;-46
2021/10/27 02:09:45;;;;;;;;;;;7.80;50.10;;;;;;4356971;32;19962;-46
2021/10/27 02:12:11;;;;;;;;;;;7.70;50.20;;;;;;4356852;32;19993;-44
2021/10/27 02:14:37;;;;;;;;;;;7.70;50.50;;;;;;4356386;32;20425;-43
2021/10/27 02:17:04;;;;;;;;;;;7.80;50.70;;;;;;4356541;32;19990;-45
2021/10/27 02:19:30;;;;;;;;;;;7.80;50.80;;;;;;4344578;32;20044;-43
2021/10/27 02:21:56;;;;;;;;;;;7.80;50.70;;;;;;4356911;32;19975;-40
2021/10/27 02:24:22;;;;;;;;;;;7.80;50.80;;;;;;4370169;32;19962;-41
2021/10/27 02:26:48;;;;;;;;;;;7.70;50.80;;;;;;4374002;32;20378;-45
2021/10/27 02:29:15;;;;;;;;;;;7.80;51.00;;;;;;4373820;32;20042;-45
2021/10/27 02:31:41;;;;;;;;;;;7.70;51.00;;;;;;4373807;32;19973;-44
2021/10/27 02:34:07;;;;;;;;;;;7.70;51.10;;;;;;4373908;32;19984;-44
2021/10/27 02:36:33;;;;;;;;;;;7.70;51.20;;;;;;4359740;32;20045;-43
2021/10/27 02:39:00;;;;;;;;;;;7.70;51.30;;;;;;4373516;32;20066;-44
2021/10/27 02:41:26;;;;;;;;;;;7.70;51.40;;;;;;4373845;32;19962;-44
2021/10/27 02:43:52;;;;;;;;;;;7.60;51.40;;;;;;4374026;32;19962;-44
2021/10/27 02:46:18;;;;;;;;;;;7.60;51.50;;;;;;4364178;32;19962;-44
2021/10/27 02:48:45;;;;;;;;;;;7.60;51.60;;;;;;4358418;32;19970;-43
2021/10/27 02:51:11;;;;;;;;;;;7.60;51.80;;;;;;4359008;32;19993;-44
2021/10/27 02:53:37;;;;;;;;;;;7.50;51.80;;;;;;4358650;32;20017;-43
2021/10/27 02:56:03;;;;;;;;;;;7.50;51.90;;;;;;4344647;32;20442;-43
2021/10/27 02:58:29;;;;;;;;;;;7.50;52.20;;;;;;4344546;32;19978;-43
2021/10/27 03:00:56;;;;;;;;;;;7.50;52.20;;;;;;4358956;32;19966;-42
2021/10/27 03:03:22;;;;;;;;;;;7.50;51.90;;;;;;4358693;32;19962;-44
2021/10/27 03:05:48;;;;;;;;;;;7.50;51.90;;;;;;4358506;32;19978;-43
2021/10/27 03:08:15;;;;;;;;;;;7.50;51.80;;;;;;4358479;32;20487;-43
2021/10/27 03:10:41;;;;;;;;;;;7.50;51.40;;;;;;4358478;32;19966;-43
2021/10/27 03:13:07;;;;;;;;;;;7.50;50.90;;;;;;4358532;32;19966;-43
2021/10/27 03:15:34;;;;;;;;;;;7.50;50.50;;;;;;4358310;32;20019;-42
2021/10/27 03:18:00;;;;;;;;;;;7.50;50.30;;;;;;4358471;32;19974;-43
2021/10/27 03:20:27;;;;;;;;;;;7.50;50.10;;;;;;4358462;32;20414;-41
2021/10/27 03:22:53;;;;;;;;;;;7.50;50.30;;;;;;4358069;32;19974;-43
2021/10/27 03:25:19;;;;;;;;;;;7.60;50.60;;;;;;4358174;32;19986;-43
2021/10/27 03:27:45;;;;;;;;;;;7.60;50.30;;;;;;4358797;32;20006;-44
2021/10/27 03:30:12;;;;;;;;;;;7.50;50.00;;;;;;4358431;32;19978;-42
2021/10/27 03:32:38;;;;;;;;;;;7.50;50.00;;;;;;4358270;32;19963;-43
2021/10/27 03:35:04;;;;;;;;;;;7.60;50.00;;;;;;4358436;32;19996;-43
2021/10/27 03:37:31;;;;;;;;;;;7.50;49.80;;;;;;4358422;32;20016;-43
2021/10/27 03:39:57;;;;;;;;;;;7.60;50.00;;;;;;4358457;32;20044;-43
2021/10/27 03:42:23;;;;;;;;;;;7.60;49.80;;;;;;4344803;32;19981;-43
2021/10/27 03:44:49;;;;;;;;;;;7.60;50.00;;;;;;4358300;32;19965;-42
2021/10/27 03:47:17;;;;;;;;;;;7.60;50.00;;;;;;4373037;32;20466;-43
2021/10/27 03:49:43;;;;;;;;;;;7.60;49.70;;;;;;4372924;32;20007;-44
2021/10/27 03:52:09;;;;;;;;;;;7.60;50.20;;;;;;4373218;32;19962;-42
2021/10/27 03:54:35;;;;;;;;;;;7.70;49.60;;;;;;4373291;32;20490;-42
2021/10/27 03:57:02;;;;;;;;;;;7.70;49.40;;;;;;4373361;32;19966;-43
2021/10/27 03:59:28;;;;;;;;;;;7.70;49.50;;;;;;4373337;32;20043;-42
2021/10/27 04:01:54;;;;;;;;;;;7.70;49.50;;;;;;4373068;32;20052;-42
2021/10/27 04:04:20;;;;;;;;;;;7.80;49.60;;;;;;4372826;32;19962;-43
2021/10/27 04:06:47;;;;;;;;;;;7.90;49.50;;;;;;4372982;32;20433;-43
2021/10/27 04:09:13;;;;;;;;;;;7.90;49.40;;;;;;4374291;32;19981;-44
2021/10/27 04:11:40;;;;;;;;;;;7.90;49.40;;;;;;4376075;32;20424;-45
2021/10/27 04:14:07;;;;;;;;;;;7.90;49.20;;;;;;4376110;32;19969;-42
2021/10/27 04:16:33;;;;;;;;;;;8.00;49.10;;;;;;4376081;32;20403;-44
2021/10/27 04:18:59;;;;;;;;;;;8.00;49.20;;;;;;4376033;32;19958;-43
2021/10/27 04:21:25;;;;;;;;;;;8.10;49.20;;;;;;4375817;32;19985;-44
2021/10/27 04:23:51;;;;;;;;;;;8.10;49.00;;;;;;4375145;32;20050;-43
2021/10/27 04:26:18;;;;;;;;;;;8.10;48.80;;;;;;4361781;32;19992;-43
2021/10/27 04:28:44;;;;;;;;;;;8.10;48.60;;;;;;4375171;32;20390;-43
2021/10/27 04:31:10;;;;;;;;;;;8.20;48.30;;;;;;4375274;32;19966;-42
2021/10/27 04:33:36;;;;;;;;;;;8.20;48.20;;;;;;4361332;32;20427;-43
2021/10/27 04:36:02;;;;;;;;;;;8.20;48.20;;;;;;4375579;32;20027;-43
2021/10/27 04:38:29;;;;;;;;;;;8.20;48.20;;;;;;4375100;32;19981;-37
2021/10/27 04:40:55;;;;;;;;;;;8.30;48.30;;;;;;4375789;32;19958;-42
2021/10/27 04:43:21;;;;;;;;;;;8.30;48.00;;;;;;4375517;32;20422;-42
2021/10/27 04:45:47;;;;;;;;;;;8.30;47.60;;;;;;4368906;32;19963;-43
2021/10/27 04:48:14;;;;;;;;;;;8.30;47.80;;;;;;4360253;32;19978;-43
2021/10/27 04:50:40;;;;;;;;;;;8.40;47.50;;;;;;4359941;32;20388;-42
2021/10/27 04:53:16;;;;;;;;;;;8.40;47.60;;;;;;4360303;32;20414;-42
2021/10/27 04:55:44;;;;;;;;;;;8.50;47.70;;;;;;4359838;32;20418;-42
2021/10/27 04:58:10;;;;;;;;;;;8.50;47.50;;;;;;4359929;32;19965;-44
2021/10/27 05:00:37;;;;;;;;;;;8.50;47.50;;;;;;4360083;32;19973;-43
2021/10/27 05:03:04;;;;;;;;;;;8.60;47.30;;;;;;4360113;32;19979;-43
2021/10/27 05:05:33;;;;;;;;;;;8.70;47.30;;;;;;4360342;32;20063;-40
2021/10/27 05:08:01;;;;;;;;;;;8.80;46.90;;;;;;4360536;32;20413;-43
2021/10/27 05:10:27;;;;;;;;;;;8.90;47.50;;;;;;4359779;32;19962;-43
2021/10/27 05:12:53;;;;;;;;;;;9.00;46.90;;;;;;4359870;32;19966;-43
2021/10/27 05:15:20;;;;;;;;;;;9.20;46.90;;;;;;4359526;32;20043;-42
2021/10/27 05:17:46;;;;;;;;;;;9.40;46.30;;;;;;4359811;32;19973;-43
2021/10/27 05:20:14;;;;;;;;;;;9.60;45.70;;;;;;4358762;32;19997;-42
2021/10/27 05:22:40;;;;;;;;;;;9.70;45.40;;;;;;4359606;32;20451;-42
2021/10/27 05:25:07;;;;;;;;;;;9.80;45.00;;;;;;4359714;32;19963;-43
2021/10/27 05:27:34;;;;;;;;;;;9.90;44.80;;;;;;4359838;32;20038;-45
2021/10/27 05:30:00;;;;;;;;;;;10.00;44.30;;;;;;4360069;32;19974;-43
2021/10/27 05:32:26;;;;;;;;;;;10.10;44.50;;;;;;4359738;32;19997;-43
2021/10/27 05:34:52;;;;;;;;;;;10.20;44.10;;;;;;4359349;32;20083;-44
2021/10/27 05:37:18;;;;;;;;;;;10.30;43.60;;;;;;4359583;32;20017;-42
2021/10/27 05:39:45;;;;;;;;;;;10.50;43.20;;;;;;4359528;32;19951;-44
2021/10/27 05:42:17;;;;;;;;;;;10.60;42.80;;;;;;4359701;32;19981;-43
2021/10/27 05:44:46;;;;;;;;;;;10.60;42.50;;;;;;4359201;32;20433;-43
2021/10/27 05:47:13;;;;;;;;;;;10.70;42.20;;;;;;4359257;32;19959;-44
2021/10/27 05:57:43;;;;;;;;;;;11.00;41.70;;;;;;4359169;32;20034;-44
2021/10/27 06:00:10;;;;;;;;;;;11.10;41.20;;;;;;4347173;32;19969;-43
2021/10/27 06:02:37;;;;;;;;;;;11.20;40.80;;;;;;4359428;32;19970;-42
2021/10/27 06:05:03;;;;;;;;;;;11.20;40.40;;;;;;4359202;32;19974;-43
2021/10/27 06:07:32;;;;;;;;;;;11.20;40.30;;;;;;4359064;32;20480;-44
2021/10/27 06:09:58;;;;;;;;;;;11.30;40.90;;;;;;4358820;32;20438;-43
2021/10/27 06:12:25;;;;;;;;;;;11.40;41.00;;;;;;4359121;32;19992;-44
2021/10/27 06:14:51;;;;;;;;;;;11.50;40.40;;;;;;4345156;32;19989;-43
2021/10/27 06:17:17;;;;;;;;;;;11.60;40.20;;;;;;4358783;32;19986;-42
2021/10/27 06:19:43;;;;;;;;;;;11.80;40.00;;;;;;4355890;32;20005;-47
2021/10/27 06:22:10;;;;;;;;;;;11.90;40.40;;;;;;4356221;32;19977;-47
2021/10/27 06:24:36;;;;;;;;;;;12.20;39.70;;;;;;4356362;32;19981;-43
2021/10/27 06:27:04;;;;;;;;;;;12.40;39.00;;;;;;4356532;32;19974;-45
2021/10/27 06:29:34;;;;;;;;;;;12.40;38.50;;;;;;4344469;32;20498;-46
2021/10/27 06:34:43;;;;;;;;;;;12.60;38.10;;;;;;4356062;32;20382;-45
2021/10/27 06:37:22;;;;;;;;;;;12.70;38.00;;;;;;4356093;32;20504;-42
2021/10/27 06:47:50;;;;;;;;;;;13.20;37.50;;;;;;4355835;32;20473;-43
2021/10/27 06:50:17;;;;;;;;;;;13.20;36.90;;;;;;4356822;32;19963;-43
2021/10/27 06:52:43;;;;;;;;;;;13.30;37.00;;;;;;4358150;32;19962;-43
2021/10/27 06:55:10;;;;;;;;;;;13.40;37.20;;;;;;4358245;32;19966;-42
2021/10/27 06:57:37;;;;;;;;;;;13.60;36.50;;;;;;4358646;32;19966;-44
2021/10/27 07:00:15;;;;;;;;;;;13.70;36.70;;;;;;4358620;32;19958;-44
2021/10/27 07:05:42;;;;;;;;;;;13.90;36.10;;;;;;4358101;32;20049;-43
2021/10/27 07:16:23;;;;;;;;;;;14.30;34.30;;;;;;4358089;32;20466;-44
2021/10/27 07:18:49;;;;;;;;;;;14.40;34.10;;;;;;4358543;32;19967;-41
2021/10/27 07:21:15;;;;;;;;;;;14.40;34.10;;;;;;4358044;32;19982;-43
2021/10/27 07:23:42;;;;;;;;;;;14.40;34.30;;;;;;4356613;32;19959;-43
2021/10/27 07:26:08;;;;;;;;;;;14.60;34.70;;;;;;4358447;32;20064;-43
2021/10/27 07:28:34;;;;;;;;;;;14.60;34.60;;;;;;4358467;32;20038;-43
2021/10/27 07:31:03;;;;;;;;;;;14.70;34.70;;;;;;4358185;32;19974;-41
2021/10/27 07:33:29;;;;;;;;;;;14.90;34.30;;;;;;4357719;32;20617;-45
2021/10/27 07:41:13;;;;;;;;;;;15.10;33.10;;;;;;4358013;32;20050;-43
2021/10/27 07:43:41;;;;;;;;;;;15.10;33.00;;;;;;4358872;32;19963;-39
2021/10/27 07:46:08;;;;;;;;;;;15.10;33.20;;;;;;4353958;32;19974;-42
2021/10/27 07:48:34;;;;;;;;;;;15.20;33.20;;;;;;4361027;32;19982;-43
2021/10/27 07:51:00;;;;;;;;;;;15.10;33.20;;;;;;4360897;32;19998;-44
2021/10/27 07:53:31;;;;;;;;;;;15.20;33.60;;;;;;4361122;32;19962;-42
2021/10/27 07:55:58;;;;;;;;;;;15.20;33.50;;;;;;4360660;32;19974;-42
2021/10/27 07:58:25;;;;;;;;;;;15.40;33.70;;;;;;4360812;32;20422;-43
2021/10/27 08:00:52;;;;;;;;;;;15.50;33.60;;;;;;4360729;32;20483;-43
2021/10/27 08:03:19;;;;;;;;;;;15.80;33.80;;;;;;4361162;32;19971;-43
2021/10/27 08:05:45;;;;;;;;;;;15.90;33.80;;;;;;4360659;32;20040;-41
2021/10/27 08:08:13;;;;;;;;;;;16.10;33.70;;;;;;4360710;32;19986;-41
2021/10/27 08:10:40;;;;;;;;;;;16.20;33.60;;;;;;4361034;32;19989;-42
2021/10/27 08:13:07;;;;;;;;;;;16.30;33.70;;;;;;4361243;32;19966;-42
2021/10/27 08:15:33;;;;;;;;;;;16.30;33.50;;;;;;4328565;33;19974;-42
2021/10/27 08:18:00;;;;;;;;;;;16.30;33.40;;;;;;4328575;33;20455;-42
2021/10/27 08:20:31;;;;;;;;;;;16.40;33.30;;;;;;4328567;33;20010;-41
2021/10/27 08:23:00;;;;;;;;;;;16.40;33.40;;;;;;4328248;33;19983;-43
2021/10/27 08:25:30;;;;;;;;;;;16.50;33.10;;;;;;4329099;33;20018;-43
2021/10/27 08:28:03;;;;;;;;;;;16.50;32.90;;;;;;4329021;33;19975;-41
2021/10/27 08:31:21;;;;;;;;;;;16.50;32.80;;;;;;4328643;33;20410;-42
2021/10/27 08:34:07;;;;;;;;;;;16.50;32.80;;;;;;4322281;33;20431;-41
2021/10/27 08:36:06;;;;;;;;;;;16.60;32.90;;;;;;4320443;33;20043;-42
2021/10/27 08:38:32;;;;;;;;;;;16.50;32.60;;;;;;4328343;33;19990;-43
2021/10/27 08:41:01;;;;;;;;;;;16.50;32.50;;;;;;4315859;33;19963;-41
2021/10/27 08:43:28;;;;;;;;;;;16.40;32.70;;;;;;4328320;33;20060;-42
2021/10/27 08:45:54;;;;;;;;;;;16.20;33.00;;;;;;4334635;33;19970;-42
2021/10/27 08:48:20;;;;;;;;;;;16.20;33.00;;;;;;4343127;33;20128;-42
2021/10/27 08:50:48;;;;;;;;;;;16.20;33.00;;;;;;4330489;33;19986;-40
2021/10/27 08:53:15;;;;;;;;;;;16.10;33.10;;;;;;4353178;32;20390;-40
2021/10/27 08:55:45;;;;;;;;;;;16.10;33.40;;;;;;4360487;32;19974;-42
2021/10/27 08:58:15;;;;;;;;;;;16.20;33.30;;;;;;4360224;32;19966;-41
2021/10/27 09:01:24;;;;;;;;;;;16.10;33.10;;;;;;4360561;32;19981;-42
2021/10/27 09:03:49;;;;;;;;;;;16.00;33.90;;;;;;4358829;32;20346;-42
2021/10/27 09:06:27;;;;;;;;;;;16.00;33.70;;;;;;4360234;32;19962;-41
2021/10/27 09:15:01;;;;;;;;;;;15.80;33.80;;;;;;4360057;32;19977;-42
2021/10/27 09:34:06;;;;;;;;;;;15.80;33.60;;;;;;4359709;32;19978;-42
2021/10/27 09:36:50;;;;;;;;;;;15.80;33.60;;;;;;4359809;32;19978;-42
2021/10/27 09:47:56;;;;;;;;;;;15.90;33.00;;;;;;4346410;32;19958;-40
2021/10/27 09:56:10;;;;;;;;;;;15.80;33.00;;;;;;4358986;32;20110;-41
2021/10/27 10:04:12;;;;;;;;;;;15.80;33.40;;;;;;4346028;32;19974;-41
2021/10/27 10:06:39;;;;;;;;;;;15.90;33.20;;;;;;4358895;32;20002;-41
2021/10/27 10:09:07;;;;;;;;;;;15.90;32.70;;;;;;4359162;32;20014;-42
2021/10/27 10:11:34;;;;;;;;;;;15.90;32.80;;;;;;4359263;32;19974;-42
2021/10/27 10:14:02;;;;;;;;;;;16.00;33.10;;;;;;4359019;32;19974;-43
2021/10/27 10:16:33;;;;;;;;;;;16.00;32.80;;;;;;4358752;32;20403;-42
2021/10/27 10:19:07;;;;;;;;;;;16.00;32.80;;;;;;4359070;32;20044;-41
2021/10/27 10:21:35;;;;;;;;;;;16.00;32.70;;;;;;4345037;32;20386;-42
2021/10/27 10:24:25;;;;;;;;;;;16.00;32.60;;;;;;4359112;32;19962;-43
2021/10/27 10:26:54;;;;;;;;;;;16.00;32.60;;;;;;4359105;32;20395;-43
2021/10/27 10:29:47;;;;;;;;;;;16.00;32.80;;;;;;4358934;32;20029;-41
2021/10/27 10:32:20;;;;;;;;;;;16.00;33.00;;;;;;4358657;32;19982;-43
2021/10/27 10:34:51;;;;;;;;;;;16.00;32.50;;;;;;4358605;32;20091;-42
2021/10/27 10:40:51;;;;;;;;;;;16.00;32.60;;;;;;4358511;32;19971;-41
2021/10/27 11:23:32;;;;;;;;;;;15.70;33.30;;;;;;4375886;32;19992;-44
2021/10/27 11:40:07;;;;;;;;;;;15.80;33.90;;;;;;4376110;32;19970;-43
2021/10/27 11:45:41;;;;;;;;;;;15.70;33.90;;;;;;4373310;32;20550;-42
2021/10/27 11:48:14;;;;;;;;;;;15.60;34.00;;;;;;4360475;32;20120;-42
2021/10/27 11:50:41;;;;;;;;;;;15.60;34.40;;;;;;4360875;32;19967;-43
2021/10/27 11:53:18;;;;;;;;;;;15.50;34.80;;;;;;4360656;32;20484;-43
2021/10/27 11:55:44;;;;;;;;;;;15.50;34.90;;;;;;4347051;32;19990;-42
2021/10/27 11:58:10;;;;;;;;;;;15.40;34.70;;;;;;4360793;32;20076;-43
2021/10/27 12:00:42;;;;;;;;;;;15.30;34.40;;;;;;4360672;32;20359;-43
2021/10/27 12:05:48;;;;;;;;;;;15.30;34.70;;;;;;4360895;32;20407;-42
2021/10/27 12:19:24;;;;;;;;;;;15.10;35.30;;;;;;4360683;32;19971;-43
2021/10/27 12:21:53;;;;;;;;;;;15.20;35.40;;;;;;4360849;32;20406;-43
2021/10/27 12:24:24;;;;;;;;;;;15.20;34.90;;;;;;4359963;32;19973;-42
2021/10/27 12:27:03;;;;;;;;;;;15.20;35.10;;;;;;4360864;32;19974;-42
2021/10/27 12:29:30;;;;;;;;;;;15.10;35.30;;;;;;4360196;32;20001;-42
2021/10/27 12:32:14;;;;;;;;;;;15.00;35.00;;;;;;4360486;32;19967;-41
2021/10/27 12:34:47;;;;;;;;;;;15.00;35.00;;;;;;4346713;32;19974;-44
2021/10/27 12:37:24;;;;;;;;;;;14.90;35.10;;;;;;4360417;32;20386;-42
2021/10/27 12:39:51;;;;;;;;;;;14.80;35.40;;;;;;4360313;32;20394;-42
2021/10/27 12:42:17;;;;;;;;;;;14.80;35.60;;;;;;4359913;32;20001;-41
2021/10/27 12:44:53;;;;;;;;;;;14.80;35.50;;;;;;4360047;32;19975;-42
2021/10/27 12:47:28;;;;;;;;;;;14.70;35.70;;;;;;4334277;32;19977;-42
2021/10/27 12:50:18;;;;;;;;;;;14.60;35.80;;;;;;4360191;32;19959;-41
2021/10/27 12:52:55;;;;;;;;;;;14.50;35.70;;;;;;4360185;32;20070;-42
2021/10/27 12:55:24;;;;;;;;;;;14.50;36.30;;;;;;4360322;32;20046;-42
2021/10/27 12:57:57;;;;;;;;;;;14.40;36.20;;;;;;4360486;32;19970;-41
2021/10/27 13:00:29;;;;;;;;;;;14.30;36.30;;;;;;4360591;32;19977;-42
2021/10/27 13:05:58;;;;;;;;;;;14.20;36.50;;;;;;4283672;33;19983;-44
2021/10/27 13:11:19;;;;;;;;;;;13.90;37.00;;;;;;4284361;33;20469;-42
2021/10/27 13:14:00;;;;;;;;;;;13.80;37.20;;;;;;4284122;33;19964;-43
2021/10/27 13:22:10;;;;;;;;;;;13.50;37.70;;;;;;4283843;33;20062;-43
2021/10/27 13:30:14;;;;;;;;;;;13.10;38.20;;;;;;4283714;33;19971;-43
2021/10/27 13:32:50;;;;;;;;;;;13.00;38.70;;;;;;4284217;33;19964;-45
2021/10/27 13:35:16;;;;;;;;;;;12.90;39.10;;;;;;4312729;33;19990;-44
2021/10/27 13:37:43;;;;;;;;;;;12.80;39.30;;;;;;4312702;33;20100;-43
2021/10/27 13:40:10;;;;;;;;;;;12.80;39.50;;;;;;4312750;33;20034;-43
2021/10/27 13:45:51;;;;;;;;;;;12.70;40.00;;;;;;4321444;33;19975;-44
2021/10/27 14:07:11;;;;;;;;;;;12.20;40.30;;;;;;4311980;33;20003;-42
2021/10/27 14:10:06;;;;;;;;;;;12.20;40.20;;;;;;4312094;33;20049;-44
2021/10/27 14:12:37;;;;;;;;;;;12.10;40.30;;;;;;4311661;33;19978;-45
2021/10/27 14:21:57;;;;;;;;;;;12.00;40.50;;;;;;4358565;32;20048;-45
2021/10/27 14:39:36;;;;;;;;;;;11.90;40.90;;;;;;4358255;32;20417;-46
2021/10/27 15:23:00;;;;;;;;;;;11.70;41.00;;;;;;4359375;32;19993;-44
2021/10/27 15:26:04;;;;;;;;;;;11.70;40.80;;;;;;4358495;32;20555;-45
2021/10/27 15:31:38;;;;;;;;;;;11.80;40.30;;;;;;4358371;32;19977;-45
2021/10/27 15:36:54;;;;;;;;;;;11.80;39.50;;;;;;4358097;32;20043;-47
2021/10/27 15:45:00;;;;;;;;;;;11.90;40.30;;;;;;4357021;32;19982;-44
2021/10/27 15:50:34;;;;;;;;;;;11.90;41.00;;;;;;4343134;33;19974;-48
2021/10/27 15:53:01;;;;;;;;;;;11.80;40.70;;;;;;4342952;32;20051;-48
2021/10/27 15:55:27;;;;;;;;;;;11.80;40.90;;;;;;4343487;32;19990;-47
2021/10/27 15:57:54;;;;;;;;;;;11.80;40.60;;;;;;4341680;33;19971;-48
2021/10/27 16:00:22;;;;;;;;;;;11.80;40.80;;;;;;4342983;32;20002;-47
2021/10/27 16:02:48;;;;;;;;;;;11.80;40.90;;;;;;4341697;33;19969;-47
2021/10/27 16:05:14;;;;;;;;;;;11.80;41.20;;;;;;4344450;32;20002;-48
2021/10/27 16:07:43;;;;;;;;;;;11.70;41.10;;;;;;4345717;32;19962;-49
2021/10/27 16:10:17;;;;;;;;;;;11.70;41.10;;;;;;4345930;32;20484;-46
2021/10/27 16:12:44;;;;;;;;;;;11.70;41.30;;;;;;4345871;32;19972;-44
2021/10/27 16:15:19;;;;;;;;;;;11.70;41.20;;;;;;4345593;32;19971;-45
2021/10/27 16:17:46;;;;;;;;;;;11.60;41.30;;;;;;4345939;32;20439;-45
2021/10/27 16:20:12;;;;;;;;;;;11.60;41.50;;;;;;4345940;32;20034;-45
2021/10/27 16:22:38;;;;;;;;;;;11.60;41.40;;;;;;4346060;32;19966;-47
2021/10/27 16:25:07;;;;;;;;;;;11.60;41.30;;;;;;4358939;32;19967;-46
2021/10/27 16:27:33;;;;;;;;;;;11.60;41.20;;;;;;4360647;32;20499;-48
2021/10/27 16:30:00;;;;;;;;;;;11.60;41.40;;;;;;4360233;32;20005;-46
2021/10/27 16:32:26;;;;;;;;;;;11.60;41.50;;;;;;4360013;32;20067;-46
2021/10/27 16:34:52;;;;;;;;;;;11.60;41.20;;;;;;4360309;32;20466;-45
2021/10/27 16:37:19;;;;;;;;;;;11.50;41.20;;;;;;4360184;32;19988;-46
2021/10/27 16:39:45;;;;;;;;;;;11.50;41.60;;;;;;4346715;32;20120;-47
2021/10/27 16:42:11;;;;;;;;;;;11.50;41.70;;;;;;4346446;32;19976;-46
2021/10/27 16:44:38;;;;;;;;;;;11.50;42.50;;;;;;4360428;32;19966;-47
2021/10/27 16:47:04;;;;;;;;;;;11.50;41.60;;;;;;4373869;32;19974;-46
2021/10/27 16:49:30;;;;;;;;;;;11.50;41.80;;;;;;4375256;32;20392;-48
2021/10/27 16:51:56;;;;;;;;;;;11.50;41.80;;;;;;4375458;32;19959;-46
2021/10/27 16:54:22;;;;;;;;;;;11.50;42.00;;;;;;4361623;32;20011;-46
2021/10/27 16:56:49;;;;;;;;;;;11.50;41.80;;;;;;4375280;32;20407;-45
2021/10/27 16:59:15;;;;;;;;;;;11.40;41.80;;;;;;4374708;32;19965;-46
2021/10/27 17:01:45;;;;;;;;;;;11.40;41.30;;;;;;4375309;32;19959;-41
2021/10/27 17:04:11;;;;;;;;;;;11.40;41.60;;;;;;4375042;32;19958;-41
2021/10/27 17:06:38;;;;;;;;;;;11.40;42.00;;;;;;4375602;32;20055;-46
2021/10/27 17:09:04;;;;;;;;;;;11.30;42.00;;;;;;4374619;32;19969;-47
2021/10/27 17:11:31;;;;;;;;;;;11.30;41.80;;;;;;4375202;32;19967;-46
2021/10/27 17:13:57;;;;;;;;;;;11.30;41.70;;;;;;4375087;32;20006;-46
2021/10/27 17:16:23;;;;;;;;;;;11.20;41.60;;;;;;4361233;32;19974;-45
2021/10/27 17:18:50;;;;;;;;;;;11.20;41.60;;;;;;4375181;32;19966;-47
2021/10/27 17:21:17;;;;;;;;;;;11.20;41.90;;;;;;4374803;32;20058;-51
2021/10/27 17:23:44;;;;;;;;;;;11.20;42.20;;;;;;4345745;32;20005;-45
2021/10/27 17:26:10;;;;;;;;;;;11.20;42.00;;;;;;4360311;32;19966;-49
2021/10/27 17:28:37;;;;;;;;;;;11.20;42.00;;;;;;4358320;32;19973;-47
2021/10/27 17:31:06;;;;;;;;;;;11.20;42.10;;;;;;4359882;32;20062;-49
2021/10/27 17:33:33;;;;;;;;;;;11.20;42.40;;;;;;4360336;32;19997;-49
2021/10/27 17:36:01;;;;;;;;;;;11.20;42.50;;;;;;4359814;32;19959;-50
2021/10/27 17:38:29;;;;;;;;;;;11.20;42.60;;;;;;4359968;32;19977;-50
2021/10/27 17:40:55;;;;;;;;;;;11.20;42.70;;;;;;4360154;32;20029;-48
2021/10/27 17:43:21;;;;;;;;;;;11.20;43.20;;;;;;4359992;32;20000;-47
2021/10/27 17:45:48;;;;;;;;;;;11.20;43.20;;;;;;4353056;32;19959;-50
2021/10/27 17:48:26;;;;;;;;;;;11.20;43.00;;;;;;4344744;32;20492;-44
2021/10/27 17:51:01;;;;;;;;;;;11.20;43.30;;;;;;4344499;32;19967;-49
2021/10/27 17:58:44;;;;;;;;;;;11.20;42.40;;;;;;4327340;33;19963;-48
2021/10/27 18:01:15;;;;;;;;;;;11.20;42.50;;;;;;4327499;33;19970;-49
2021/10/27 18:03:43;;;;;;;;;;;11.20;42.60;;;;;;4327262;33;20390;-49
2021/10/27 18:06:11;;;;;;;;;;;11.20;42.70;;;;;;4327459;33;19983;-50
2021/10/27 18:08:43;;;;;;;;;;;11.20;42.90;;;;;;4327180;33;20073;-49
2021/10/27 18:11:13;;;;;;;;;;;11.20;43.00;;;;;;4326983;33;19991;-49
2021/10/27 18:13:41;;;;;;;;;;;11.20;43.00;;;;;;4327343;33;19982;-51
2021/10/27 18:21:53;;;;;;;;;;;11.20;42.90;;;;;;4326961;33;20605;-50
2021/10/27 18:27:19;;;;;;;;;;;11.10;42.80;;;;;;4344556;32;20043;-48
2021/10/27 18:38:10;;;;;;;;;;;11.00;42.50;;;;;;4344054;33;19971;-47
2021/10/27 18:43:09;;;;;;;;;;;10.90;42.20;;;;;;4343987;32;19990;-46
2021/10/27 18:45:36;;;;;;;;;;;10.90;42.20;;;;;;4348746;32;19986;-49
2021/10/27 18:48:03;;;;;;;;;;;10.90;42.00;;;;;;4359117;32;19972;-47
2021/10/27 18:50:38;;;;;;;;;;;10.90;42.20;;;;;;4357371;32;19963;-48
2021/10/27 18:53:17;;;;;;;;;;;10.90;42.10;;;;;;4358409;32;20435;-49
2021/10/27 18:55:57;;;;;;;;;;;10.80;42.30;;;;;;4359133;32;20191;-52
2021/10/27 18:58:34;;;;;;;;;;;10.80;42.30;;;;;;4358908;32;19969;-46
2021/10/27 19:11:59;;;;;;;;;;;10.70;41.60;;;;;;4358446;32;19962;-50
2021/10/27 19:14:33;;;;;;;;;;;10.70;41.30;;;;;;4358367;32;19990;-48
2021/10/27 19:17:00;;;;;;;;;;;10.60;41.50;;;;;;4358274;32;20517;-47
2021/10/27 19:19:26;;;;;;;;;;;10.60;41.60;;;;;;4357008;32;19959;-49
2021/10/27 19:21:52;;;;;;;;;;;10.60;41.80;;;;;;4358823;32;19966;-46
2021/10/27 19:24:28;;;;;;;;;;;10.60;42.10;;;;;;4367008;32;20041;-49
2021/10/27 19:26:59;;;;;;;;;;;10.60;42.20;;;;;;4373659;32;19966;-49
2021/10/27 19:29:30;;;;;;;;;;;10.60;41.80;;;;;;4373420;32;19973;-51
2021/10/27 19:32:28;;;;;;;;;;;10.60;42.30;;;;;;4373719;32;20407;-51